Terminal Aerodrome Forecast
Issued by NWS Huntsville, AL

Home | Current Version | Previous Version | Text Only | Print | Product List | Glossary On
Versions: 1 2 3 4 5 6 7 8 9 10 11 12 13
000
FTUS44 KHUN 231128
TAFMSL
TAF
KMSL 231128Z 2312/2412 28011KT P6SM SKC
     FM231400 26012G18KT P6SM SKC
     FM231600 29014G21KT P6SM BKN035
     FM240100 31005KT P6SM BKN030=

USA.gov is the U.S. government's official web portal to all federal, state and local government web resources and services.